world map with CUC marked

CUC - Airport

This information may not be accurate or current and is not valid for navigation or flight planning. No warranty of fitness for any purpose is made or implied.

flag of Norte de Santanderflag of Colombia

Donate via PayPal

Additional information is available on the NEW Great Circle Mapper

Location
City:  Cúcuta, Norte de Santander, Colombia
Name:Camilo Daza International Airport
ICAO / IATA:SKCC / CUC

Details
Type:Airport (Aerodrome, Airfield)
Latitude:7°55'53"N (7.931389)
Longitude:72°30'51"W (-72.514166)
Elevation:1098 ft (335 m)
Runways:2
Longest:7700 × 148 ft (2347 × 45 m)

Time
Timezone:UTC+29:08 (DST+31:08)
Local Time:

Weather
METAR:SKCC  240400Z VRB02KT 9999 SCT018 SCT200 27/23 A2990
TAF:SKCC  (expired)

Related Locations
Nearby:
Farthest:TSY: 12374 mi / 19914 km
Tasikmalaya (Tasik) [Cibeureum (Wiriadinata)], JB, ID

Find:

   beyond  
but within

Other Information
Maps:
Sources:

  


 


Great Circle Mapper   Great Circle Mapper
Great Circle Mapper FAQ   Great Circle Mapper FAQ
  Karl's Home Page
KLS˛   KLS˛ Home
   GC on Facebook
Airlines of the World   Airlines of the World
Donate via PayPal


Copyright © 2004-2018, Karl L. Swartz. All rights reserved.
All trademarks mentioned herein belong to their respective owners.

Please see credits for attribution and copyright information.

Karl Swartz <karl@kls2.com>
  Powered by FreeBSD
Valid HTML 4.01!
Labeled with ICRA
hCard Microformat
Geo Microformat